sensor_id;sensor_type;location;lat;lon;timestamp;pressure;altitude;pressure_sealevel;temperature;humidity
76132;BME280;64877;50.994;13.650;2022-11-15T00:01:42;99695.28;;;3.72;83.92
76132;BME280;64877;50.994;13.650;2022-11-15T00:04:07;99690.09;;;3.69;84.58
76132;BME280;64877;50.994;13.650;2022-11-15T00:06:33;99687.13;;;3.75;84.42
76132;BME280;64877;50.994;13.650;2022-11-15T00:08:59;99691.28;;;3.81;83.20
76132;BME280;64877;50.994;13.650;2022-11-15T00:11:25;99686.50;;;3.87;83.17
76132;BME280;64877;50.994;13.650;2022-11-15T00:13:50;99680.88;;;3.94;82.97
76132;BME280;64877;50.994;13.650;2022-11-15T00:16:16;99666.88;;;4.06;81.74
76132;BME280;64877;50.994;13.650;2022-11-15T00:18:41;99668.31;;;4.13;80.99
76132;BME280;64877;50.994;13.650;2022-11-15T00:21:10;99676.16;;;4.16;80.96
76132;BME280;64877;50.994;13.650;2022-11-15T00:23:36;99666.03;;;4.23;80.44
76132;BME280;64877;50.994;13.650;2022-11-15T00:26:02;99662.78;;;4.16;81.36
76132;BME280;64877;50.994;13.650;2022-11-15T00:28:28;99672.00;;;4.10;82.54
76132;BME280;64877;50.994;13.650;2022-11-15T00:30:59;99666.75;;;4.09;82.95
76132;BME280;64877;50.994;13.650;2022-11-15T00:33:25;99668.31;;;4.13;83.07
76132;BME280;64877;50.994;13.650;2022-11-15T00:35:50;99661.31;;;3.93;83.23
76132;BME280;64877;50.994;13.650;2022-11-15T00:38:15;99667.81;;;3.87;82.95
76132;BME280;64877;50.994;13.650;2022-11-15T00:40:41;99664.72;;;3.78;82.91
76132;BME280;64877;50.994;13.650;2022-11-15T00:43:06;99655.63;;;3.82;81.89
76132;BME280;64877;50.994;13.650;2022-11-15T00:45:32;99652.56;;;3.89;82.22
76132;BME280;64877;50.994;13.650;2022-11-15T00:47:57;99657.06;;;3.89;82.47
76132;BME280;64877;50.994;13.650;2022-11-15T00:50:22;99652.91;;;3.83;84.39
76132;BME280;64877;50.994;13.650;2022-11-15T00:52:48;99660.41;;;3.93;84.27
76132;BME280;64877;50.994;13.650;2022-11-15T00:55:17;99659.78;;;3.87;83.64
76132;BME280;64877;50.994;13.650;2022-11-15T00:57:43;99649.28;;;3.84;83.12
76132;BME280;64877;50.994;13.650;2022-11-15T01:00:09;99643.94;;;3.84;83.73
76132;BME280;64877;50.994;13.650;2022-11-15T01:02:35;99644.72;;;4.04;84.34
76132;BME280;64877;50.994;13.650;2022-11-15T01:05:00;99637.19;;;3.95;83.63
76132;BME280;64877;50.994;13.650;2022-11-15T01:07:26;99636.56;;;3.89;85.39
76132;BME280;64877;50.994;13.650;2022-11-15T01:09:51;99632.22;;;3.87;84.43
76132;BME280;64877;50.994;13.650;2022-11-15T01:12:17;99636.88;;;3.83;84.48
76132;BME280;64877;50.994;13.650;2022-11-15T01:14:42;99625.31;;;4.00;85.05
76132;BME280;64877;50.994;13.650;2022-11-15T01:17:07;99631.44;;;4.02;84.36
76132;BME280;64877;50.994;13.650;2022-11-15T01:19:33;99628.06;;;3.99;84.20
76132;BME280;64877;50.994;13.650;2022-11-15T01:21:58;99630.03;;;3.95;84.48
76132;BME280;64877;50.994;13.650;2022-11-15T01:24:24;99624.44;;;4.00;84.16
76132;BME280;64877;50.994;13.650;2022-11-15T01:26:49;99624.91;;;3.91;83.55
76132;BME280;64877;50.994;13.650;2022-11-15T01:29:14;99621.31;;;3.74;83.09
76132;BME280;64877;50.994;13.650;2022-11-15T01:31:40;99620.97;;;3.63;83.23
76132;BME280;64877;50.994;13.650;2022-11-15T01:34:05;99621.56;;;3.51;83.06
76132;BME280;64877;50.994;13.650;2022-11-15T01:36:31;99622.66;;;3.47;82.55
76132;BME280;64877;50.994;13.650;2022-11-15T01:38:57;99624.69;;;3.42;84.02
76132;BME280;64877;50.994;13.650;2022-11-15T01:41:26;99608.69;;;3.42;82.73
76132;BME280;64877;50.994;13.650;2022-11-15T01:43:54;99621.25;;;3.40;83.80
76132;BME280;64877;50.994;13.650;2022-11-15T01:46:34;99622.97;;;3.41;82.36
76132;BME280;64877;50.994;13.650;2022-11-15T01:49:04;99608.38;;;3.48;82.10
76132;BME280;64877;50.994;13.650;2022-11-15T01:51:32;99613.38;;;3.36;82.35
76132;BME280;64877;50.994;13.650;2022-11-15T01:54:02;99603.72;;;3.34;82.41
76132;BME280;64877;50.994;13.650;2022-11-15T01:56:33;99611.00;;;3.30;81.94
76132;BME280;64877;50.994;13.650;2022-11-15T01:59:04;99590.47;;;3.50;80.92
76132;BME280;64877;50.994;13.650;2022-11-15T02:01:32;99589.94;;;3.43;80.66
76132;BME280;64877;50.994;13.650;2022-11-15T02:04:02;99592.97;;;3.35;82.14
76132;BME280;64877;50.994;13.650;2022-11-15T02:06:29;99587.28;;;3.43;80.77
76132;BME280;64877;50.994;13.650;2022-11-15T02:08:54;99598.03;;;3.23;81.56
76132;BME280;64877;50.994;13.650;2022-11-15T02:11:21;99593.84;;;3.17;81.99
76132;BME280;64877;50.994;13.650;2022-11-15T02:13:46;99591.41;;;3.13;81.65
76132;BME280;64877;50.994;13.650;2022-11-15T02:25:15;99590.09;;;3.21;81.25
76132;BME280;64877;50.994;13.650;2022-11-15T02:31:04;99578.22;;;3.28;81.17
76132;BME280;64877;50.994;13.650;2022-11-15T02:33:47;99580.72;;;3.31;81.51
76132;BME280;64877;50.994;13.650;2022-11-15T02:38:59;99565.19;;;3.40;80.67
76132;BME280;64877;50.994;13.650;2022-11-15T02:44:07;99554.91;;;3.49;79.98
76132;BME280;64877;50.994;13.650;2022-11-15T02:46:51;99553.56;;;3.41;80.03
76132;BME280;64877;50.994;13.650;2022-11-15T02:49:37;99551.22;;;3.34;80.39
76132;BME280;64877;50.994;13.650;2022-11-15T02:52:03;99549.22;;;3.38;80.29
76132;BME280;64877;50.994;13.650;2022-11-15T02:54:30;99555.06;;;3.29;80.66
76132;BME280;64877;50.994;13.650;2022-11-15T02:57:12;99552.00;;;3.36;81.18
76132;BME280;64877;50.994;13.650;2022-11-15T03:00:04;99551.03;;;3.37;80.92
76132;BME280;64877;50.994;13.650;2022-11-15T03:05:25;99557.50;;;3.33;81.38
76132;BME280;64877;50.994;13.650;2022-11-15T03:10:47;99555.53;;;3.37;80.10
76132;BME280;64877;50.994;13.650;2022-11-15T03:16:20;99553.31;;;3.28;82.10
76132;BME280;64877;50.994;13.650;2022-11-15T03:19:04;99542.03;;;3.40;81.32
76132;BME280;64877;50.994;13.650;2022-11-15T03:21:32;99536.56;;;3.43;81.83
76132;BME280;64877;50.994;13.650;2022-11-15T03:24:01;99532.53;;;3.52;81.88
76132;BME280;64877;50.994;13.650;2022-11-15T03:26:29;99525.16;;;3.57;82.03
76132;BME280;64877;50.994;13.650;2022-11-15T03:28:58;99524.47;;;3.53;82.04
76132;BME280;64877;50.994;13.650;2022-11-15T03:31:29;99532.38;;;3.55;81.78
76132;BME280;64877;50.994;13.650;2022-11-15T03:37:02;99521.44;;;3.42;80.83
76132;BME280;64877;50.994;13.650;2022-11-15T03:39:29;99519.03;;;3.55;81.30
76132;BME280;64877;50.994;13.650;2022-11-15T03:44:51;99521.94;;;3.50;81.73
76132;BME280;64877;50.994;13.650;2022-11-15T03:47:25;99524.31;;;3.39;82.17
76132;BME280;64877;50.994;13.650;2022-11-15T03:49:57;99527.34;;;3.31;81.54
76132;BME280;64877;50.994;13.650;2022-11-15T03:52:24;99521.53;;;3.41;81.37
76132;BME280;64877;50.994;13.650;2022-11-15T03:54:54;99519.59;;;3.44;81.23
76132;BME280;64877;50.994;13.650;2022-11-15T03:57:21;99519.34;;;3.49;80.51
76132;BME280;64877;50.994;13.650;2022-11-15T03:59:46;99515.81;;;3.48;80.42
76132;BME280;64877;50.994;13.650;2022-11-15T04:02:12;99513.31;;;3.45;80.61
76132;BME280;64877;50.994;13.650;2022-11-15T04:04:38;99520.53;;;3.43;81.01
76132;BME280;64877;50.994;13.650;2022-11-15T04:07:03;99515.72;;;3.32;80.96
76132;BME280;64877;50.994;13.650;2022-11-15T04:09:29;99514.72;;;3.35;81.17
76132;BME280;64877;50.994;13.650;2022-11-15T04:11:54;99514.84;;;3.32;80.75
76132;BME280;64877;50.994;13.650;2022-11-15T04:14:19;99512.91;;;3.35;80.94
76132;BME280;64877;50.994;13.650;2022-11-15T04:16:45;99503.72;;;3.24;81.17
76132;BME280;64877;50.994;13.650;2022-11-15T04:19:10;99517.06;;;3.41;80.78
76132;BME280;64877;50.994;13.650;2022-11-15T04:21:54;99518.16;;;3.37;80.76
76132;BME280;64877;50.994;13.650;2022-11-15T04:24:38;99505.66;;;3.37;81.43
76132;BME280;64877;50.994;13.650;2022-11-15T04:27:03;99506.94;;;3.48;80.36
76132;BME280;64877;50.994;13.650;2022-11-15T04:29:29;99514.00;;;3.14;81.12
76132;BME280;64877;50.994;13.650;2022-11-15T04:32:04;99507.38;;;3.04;82.82
76132;BME280;64877;50.994;13.650;2022-11-15T04:34:30;99506.53;;;3.03;83.10
76132;BME280;64877;50.994;13.650;2022-11-15T04:36:55;99507.22;;;3.07;83.69
76132;BME280;64877;50.994;13.650;2022-11-15T04:39:40;99500.69;;;3.13;83.45
76132;BME280;64877;50.994;13.650;2022-11-15T04:42:06;99500.66;;;3.14;82.60
76132;BME280;64877;50.994;13.650;2022-11-15T04:44:32;99506.34;;;3.06;83.38
76132;BME280;64877;50.994;13.650;2022-11-15T04:46:57;99501.47;;;2.97;82.64
76132;BME280;64877;50.994;13.650;2022-11-15T04:49:22;99494.72;;;3.07;82.41
76132;BME280;64877;50.994;13.650;2022-11-15T04:51:48;99493.19;;;3.21;82.50
76132;BME280;64877;50.994;13.650;2022-11-15T04:54:13;99492.09;;;3.42;82.20
76132;BME280;64877;50.994;13.650;2022-11-15T04:56:38;99497.06;;;3.50;80.69
76132;BME280;64877;50.994;13.650;2022-11-15T04:59:04;99500.69;;;3.49;81.41
76132;BME280;64877;50.994;13.650;2022-11-15T05:01:29;99486.75;;;3.42;80.69
76132;BME280;64877;50.994;13.650;2022-11-15T05:03:55;99493.72;;;3.27;81.45
76132;BME280;64877;50.994;13.650;2022-11-15T05:06:38;99480.00;;;3.18;82.13
76132;BME280;64877;50.994;13.650;2022-11-15T05:09:04;99485.09;;;3.22;81.56
76132;BME280;64877;50.994;13.650;2022-11-15T05:11:29;99477.72;;;3.10;81.29
76132;BME280;64877;50.994;13.650;2022-11-15T05:13:55;99473.56;;;3.22;80.90
76132;BME280;64877;50.994;13.650;2022-11-15T05:16:20;99480.16;;;3.32;80.68
76132;BME280;64877;50.994;13.650;2022-11-15T05:18:46;99481.19;;;3.29;80.93
76132;BME280;64877;50.994;13.650;2022-11-15T05:21:13;99477.03;;;3.24;81.63
76132;BME280;64877;50.994;13.650;2022-11-15T05:23:40;99478.13;;;3.20;82.36
76132;BME280;64877;50.994;13.650;2022-11-15T05:26:06;99478.03;;;3.21;82.23
76132;BME280;64877;50.994;13.650;2022-11-15T05:28:33;99480.53;;;3.07;82.04
76132;BME280;64877;50.994;13.650;2022-11-15T05:31:12;99479.13;;;3.17;81.86
76132;BME280;64877;50.994;13.650;2022-11-15T05:33:39;99468.94;;;3.25;81.14
76132;BME280;64877;50.994;13.650;2022-11-15T05:36:09;99467.69;;;3.32;80.93
76132;BME280;64877;50.994;13.650;2022-11-15T05:38:37;99474.78;;;3.33;81.05
76132;BME280;64877;50.994;13.650;2022-11-15T05:41:03;99473.09;;;3.31;80.90
76132;BME280;64877;50.994;13.650;2022-11-15T05:43:30;99470.53;;;3.29;80.74
76132;BME280;64877;50.994;13.650;2022-11-15T05:45:57;99469.25;;;3.19;81.68
76132;BME280;64877;50.994;13.650;2022-11-15T05:48:24;99479.13;;;3.17;81.94
76132;BME280;64877;50.994;13.650;2022-11-15T05:50:49;99470.53;;;3.29;81.36
76132;BME280;64877;50.994;13.650;2022-11-15T05:53:18;99471.75;;;3.22;81.95
76132;BME280;64877;50.994;13.650;2022-11-15T05:55:44;99470.66;;;3.09;82.87
76132;BME280;64877;50.994;13.650;2022-11-15T05:58:10;99472.47;;;3.08;83.26
76132;BME280;64877;50.994;13.650;2022-11-15T06:00:36;99465.16;;;3.12;81.40
76132;BME280;64877;50.994;13.650;2022-11-15T06:03:01;99474.44;;;3.22;81.18
76132;BME280;64877;50.994;13.650;2022-11-15T06:05:27;99469.72;;;3.10;81.13
76132;BME280;64877;50.994;13.650;2022-11-15T06:07:56;99468.16;;;3.06;81.56
76132;BME280;64877;50.994;13.650;2022-11-15T06:10:22;99475.44;;;3.02;81.68
76132;BME280;64877;50.994;13.650;2022-11-15T06:12:47;99469.63;;;2.94;82.52
76132;BME280;64877;50.994;13.650;2022-11-15T06:15:20;99473.78;;;3.00;82.69
76132;BME280;64877;50.994;13.650;2022-11-15T06:17:46;99471.13;;;3.00;82.37
76132;BME280;64877;50.994;13.650;2022-11-15T06:20:11;99471.50;;;2.92;82.76
76132;BME280;64877;50.994;13.650;2022-11-15T06:22:36;99477.06;;;2.88;83.69
76132;BME280;64877;50.994;13.650;2022-11-15T06:25:02;99476.13;;;2.89;83.62
76132;BME280;64877;50.994;13.650;2022-11-15T06:27:28;99483.44;;;3.02;83.19
76132;BME280;64877;50.994;13.650;2022-11-15T06:29:53;99482.13;;;3.11;82.43
76132;BME280;64877;50.994;13.650;2022-11-15T06:32:18;99477.72;;;3.10;81.51
76132;BME280;64877;50.994;13.650;2022-11-15T06:34:44;99482.44;;;3.22;81.94
76132;BME280;64877;50.994;13.650;2022-11-15T06:37:09;99480.41;;;3.27;82.17
76132;BME280;64877;50.994;13.650;2022-11-15T06:39:34;99485.09;;;3.22;82.23
76132;BME280;64877;50.994;13.650;2022-11-15T06:42:00;99476.09;;;3.25;82.18
76132;BME280;64877;50.994;13.650;2022-11-15T06:44:25;99489.97;;;3.31;82.29
76132;BME280;64877;50.994;13.650;2022-11-15T06:46:50;99486.53;;;3.29;82.46
76132;BME280;64877;50.994;13.650;2022-11-15T06:49:16;99481.66;;;3.37;82.68
76132;BME280;64877;50.994;13.650;2022-11-15T06:51:41;99477.50;;;3.49;81.82
76132;BME280;64877;50.994;13.650;2022-11-15T06:54:07;99479.94;;;3.54;81.28
76132;BME280;64877;50.994;13.650;2022-11-15T06:56:33;99479.09;;;3.53;82.31
76132;BME280;64877;50.994;13.650;2022-11-15T06:58:58;99486.34;;;3.67;81.91
76132;BME280;64877;50.994;13.650;2022-11-15T07:01:24;99493.03;;;3.76;81.67
76132;BME280;64877;50.994;13.650;2022-11-15T07:03:49;99493.16;;;3.90;81.36
76132;BME280;64877;50.994;13.650;2022-11-15T07:06:15;99490.75;;;3.85;80.97
76132;BME280;64877;50.994;13.650;2022-11-15T07:08:40;99495.78;;;4.07;80.94
76132;BME280;64877;50.994;13.650;2022-11-15T07:11:07;99498.94;;;4.31;80.02
76132;BME280;64877;50.994;13.650;2022-11-15T07:13:34;99495.38;;;4.48;79.51
76132;BME280;64877;50.994;13.650;2022-11-15T07:16:05;99487.09;;;4.69;79.09
76132;BME280;64877;50.994;13.650;2022-11-15T07:18:34;99484.16;;;4.73;78.12
76132;BME280;64877;50.994;13.650;2022-11-15T07:21:10;99484.84;;;4.92;77.01
76132;BME280;64877;50.994;13.650;2022-11-15T07:23:37;99491.53;;;5.15;77.32
76132;BME280;64877;50.994;13.650;2022-11-15T07:26:06;99484.81;;;5.38;76.61
76132;BME280;64877;50.994;13.650;2022-11-15T07:28:32;99488.84;;;5.45;77.00
76132;BME280;64877;50.994;13.650;2022-11-15T07:31:04;99491.09;;;5.53;77.27
76132;BME280;64877;50.994;13.650;2022-11-15T07:33:30;99490.22;;;5.53;77.83
76132;BME280;64877;50.994;13.650;2022-11-15T07:35:59;99494.13;;;5.77;77.29
76132;BME280;64877;50.994;13.650;2022-11-15T07:38:26;99493.81;;;5.82;76.06
76132;BME280;64877;50.994;13.650;2022-11-15T07:41:00;99493.22;;;5.92;75.88
76132;BME280;64877;50.994;13.650;2022-11-15T07:43:26;99485.44;;;6.16;74.07
76132;BME280;64877;50.994;13.650;2022-11-15T07:45:55;99488.06;;;6.18;74.61
76132;BME280;64877;50.994;13.650;2022-11-15T07:48:22;99485.16;;;6.35;75.73
76132;BME280;64877;50.994;13.650;2022-11-15T07:50:48;99477.84;;;6.66;74.99
76132;BME280;64877;50.994;13.650;2022-11-15T07:53:13;99475.97;;;6.81;72.72
76132;BME280;64877;50.994;13.650;2022-11-15T07:55:40;99480.88;;;6.88;73.37
76132;BME280;64877;50.994;13.650;2022-11-15T07:58:08;99473.06;;;6.98;73.88
76132;BME280;64877;50.994;13.650;2022-11-15T08:00:34;99472.25;;;7.10;72.45
76132;BME280;64877;50.994;13.650;2022-11-15T08:03:08;99465.81;;;7.13;73.01
76132;BME280;64877;50.994;13.650;2022-11-15T08:05:35;99462.25;;;7.39;71.91
76132;BME280;64877;50.994;13.650;2022-11-15T08:08:00;99464.88;;;7.66;72.69
76132;BME280;64877;50.994;13.650;2022-11-15T08:10:26;99461.03;;;7.96;70.73
76132;BME280;64877;50.994;13.650;2022-11-15T08:12:59;99455.97;;;7.91;72.85
76132;BME280;64877;50.994;13.650;2022-11-15T08:15:25;99465.75;;;8.18;71.23
76132;BME280;64877;50.994;13.650;2022-11-15T08:17:56;99464.75;;;8.44;68.45
76132;BME280;64877;50.994;13.650;2022-11-15T08:20:22;99464.16;;;8.41;70.01
76132;BME280;64877;50.994;13.650;2022-11-15T08:22:48;99462.91;;;8.58;70.17
76132;BME280;64877;50.994;13.650;2022-11-15T08:25:13;99454.69;;;8.72;70.16
76132;BME280;64877;50.994;13.650;2022-11-15T08:27:39;99454.44;;;8.88;69.50
76132;BME280;64877;50.994;13.650;2022-11-15T08:30:04;99454.13;;;9.03;70.04
76132;BME280;64877;50.994;13.650;2022-11-15T08:32:31;99445.16;;;9.16;69.41
76132;BME280;64877;50.994;13.650;2022-11-15T08:34:56;99437.16;;;9.38;68.27
76132;BME280;64877;50.994;13.650;2022-11-15T08:37:21;99446.53;;;9.56;68.06
76132;BME280;64877;50.994;13.650;2022-11-15T08:39:47;99444.81;;;9.55;69.23
76132;BME280;64877;50.994;13.650;2022-11-15T08:42:12;99441.63;;;9.50;67.61
76132;BME280;64877;50.994;13.650;2022-11-15T08:44:40;99430.72;;;9.63;67.79
76132;BME280;64877;50.994;13.650;2022-11-15T08:47:05;99440.44;;;9.77;68.08
76132;BME280;64877;50.994;13.650;2022-11-15T08:49:30;99435.34;;;10.07;67.65
76132;BME280;64877;50.994;13.650;2022-11-15T08:51:56;99431.19;;;10.15;68.11
76132;BME280;64877;50.994;13.650;2022-11-15T08:54:21;99424.84;;;10.27;66.62
76132;BME280;64877;50.994;13.650;2022-11-15T08:56:47;99418.59;;;10.26;67.98
76132;BME280;64877;50.994;13.650;2022-11-15T08:59:13;99415.75;;;10.28;68.09
76132;BME280;64877;50.994;13.650;2022-11-15T09:01:38;99413.94;;;10.40;68.82
76132;BME280;64877;50.994;13.650;2022-11-15T09:04:03;99417.56;;;10.39;67.03
76132;BME280;64877;50.994;13.650;2022-11-15T09:06:30;99409.63;;;10.37;67.61
76132;BME280;64877;50.994;13.650;2022-11-15T09:08:56;99412.66;;;10.44;67.54
76132;BME280;64877;50.994;13.650;2022-11-15T09:11:21;99417.56;;;10.39;67.75
76132;BME280;64877;50.994;13.650;2022-11-15T09:13:48;99410.09;;;10.42;68.55
76132;BME280;64877;50.994;13.650;2022-11-15T09:16:14;99409.97;;;10.44;68.81
76132;BME280;64877;50.994;13.650;2022-11-15T09:18:40;99414.78;;;10.40;68.39
76132;BME280;64877;50.994;13.650;2022-11-15T09:21:06;99412.19;;;10.50;67.85
76132;BME280;64877;50.994;13.650;2022-11-15T09:23:32;99414.50;;;10.66;68.14
76132;BME280;64877;50.994;13.650;2022-11-15T09:25:59;99409.53;;;10.82;68.50
76132;BME280;64877;50.994;13.650;2022-11-15T09:28:25;99408.59;;;11.04;68.01
76132;BME280;64877;50.994;13.650;2022-11-15T09:30:51;99400.03;;;11.31;66.75
76132;BME280;64877;50.994;13.650;2022-11-15T09:33:16;99401.63;;;11.54;65.19
76132;BME280;64877;50.994;13.650;2022-11-15T09:35:42;99396.22;;;12.27;62.77
76132;BME280;64877;50.994;13.650;2022-11-15T09:38:07;99383.28;;;14.14;58.63
76132;BME280;64877;50.994;13.650;2022-11-15T09:40:36;99381.81;;;14.85;56.00
76132;BME280;64877;50.994;13.650;2022-11-15T09:46:16;99360.78;;;14.87;56.60
76132;BME280;64877;50.994;13.650;2022-11-15T09:48:50;99364.03;;;15.88;53.86
76132;BME280;64877;50.994;13.650;2022-11-15T09:51:29;99355.56;;;17.50;48.88
76132;BME280;64877;50.994;13.650;2022-11-15T09:56:35;99337.69;;;20.49;42.15
76132;BME280;64877;50.994;13.650;2022-11-15T10:02:04;99329.38;;;22.42;38.50
76132;BME280;64877;50.994;13.650;2022-11-15T10:04:37;99320.50;;;22.47;38.40
76132;BME280;64877;50.994;13.650;2022-11-15T10:09:54;99305.28;;;22.99;37.08
76132;BME280;64877;50.994;13.650;2022-11-15T10:12:22;99315.34;;;23.53;35.96
76132;BME280;64877;50.994;13.650;2022-11-15T10:14:49;99307.16;;;22.91;37.06
76132;BME280;64877;50.994;13.650;2022-11-15T10:19:56;99299.16;;;24.16;34.57
76132;BME280;64877;50.994;13.650;2022-11-15T10:22:28;99294.03;;;24.26;34.19
76132;BME280;64877;50.994;13.650;2022-11-15T10:27:29;99307.66;;;20.62;41.18
76132;BME280;64877;50.994;13.650;2022-11-15T10:29:54;99296.56;;;18.83;45.23
76132;BME280;64877;50.994;13.650;2022-11-15T10:32:20;99301.31;;;17.23;49.47
76132;BME280;64877;50.994;13.650;2022-11-15T10:34:48;99306.06;;;16.38;52.14
76132;BME280;64877;50.994;13.650;2022-11-15T10:37:14;99300.31;;;15.55;55.37
76132;BME280;64877;50.994;13.650;2022-11-15T10:39:39;99294.25;;;14.81;57.50
76132;BME280;64877;50.994;13.650;2022-11-15T10:42:25;99303.03;;;14.30;59.32
76132;BME280;64877;50.994;13.650;2022-11-15T10:44:51;99299.06;;;13.87;61.47
76132;BME280;64877;50.994;13.650;2022-11-15T10:47:31;99289.72;;;13.62;62.63
76132;BME280;64877;50.994;13.650;2022-11-15T10:50:25;99293.38;;;13.43;63.83
76132;BME280;64877;50.994;13.650;2022-11-15T10:52:46;99295.25;;;13.13;65.04
76132;BME280;64877;50.994;13.650;2022-11-15T10:57:49;99290.97;;;12.91;66.05
76132;BME280;64877;50.994;13.650;2022-11-15T11:05:31;99277.69;;;12.50;68.04
76132;BME280;64877;50.994;13.650;2022-11-15T11:10:32;99268.56;;;12.41;67.50
76132;BME280;64877;50.994;13.650;2022-11-15T11:13:26;99272.41;;;12.29;68.22
76132;BME280;64877;50.994;13.650;2022-11-15T11:24:36;99259.63;;;12.00;69.55
76132;BME280;64877;50.994;13.650;2022-11-15T11:30:12;99264.59;;;11.95;70.32
76132;BME280;64877;50.994;13.650;2022-11-15T11:32:49;99255.22;;;11.99;69.16
76132;BME280;64877;50.994;13.650;2022-11-15T11:35:28;99251.22;;;11.94;70.16
76132;BME280;64877;50.994;13.650;2022-11-15T11:41:43;99245.81;;;11.94;69.67
76132;BME280;64877;50.994;13.650;2022-11-15T11:44:32;99248.38;;;11.95;70.51
76132;BME280;64877;50.994;13.650;2022-11-15T11:47:10;99239.50;;;11.93;70.06
76132;BME280;64877;50.994;13.650;2022-11-15T11:49:43;99236.97;;;11.92;70.44
76132;BME280;64877;50.994;13.650;2022-11-15T11:54:47;99235.53;;;11.87;70.09
76132;BME280;64877;50.994;13.650;2022-11-15T11:57:24;99229.00;;;11.90;70.09
76132;BME280;64877;50.994;13.650;2022-11-15T11:59:56;99229.25;;;11.87;69.62
76132;BME280;64877;50.994;13.650;2022-11-15T12:02:42;99218.44;;;11.87;70.33
76132;BME280;64877;50.994;13.650;2022-11-15T12:05:34;99218.44;;;11.87;70.55
76132;BME280;64877;50.994;13.650;2022-11-15T12:13:43;99203.38;;;11.94;69.64
76132;BME280;64877;50.994;13.650;2022-11-15T12:16:27;99197.09;;;11.94;70.08
76132;BME280;64877;50.994;13.650;2022-11-15T12:18:54;99200.66;;;11.94;69.61
76132;BME280;64877;50.994;13.650;2022-11-15T12:21:45;99193.41;;;11.95;69.83
76132;BME280;64877;50.994;13.650;2022-11-15T12:24:52;99185.84;;;11.98;69.56
76132;BME280;64877;50.994;13.650;2022-11-15T12:27:20;99181.41;;;11.97;69.55
76132;BME280;64877;50.994;13.650;2022-11-15T12:29:58;99185.28;;;11.95;69.85
76132;BME280;64877;50.994;13.650;2022-11-15T12:34:53;99167.47;;;11.92;69.51
76132;BME280;64877;50.994;13.650;2022-11-15T12:42:44;99161.34;;;11.90;70.06
76132;BME280;64877;50.994;13.650;2022-11-15T12:58:58;99149.03;;;11.76;70.77
76132;BME280;64877;50.994;13.650;2022-11-15T13:14:58;99140.31;;;11.73;69.67
76132;BME280;64877;50.994;13.650;2022-11-15T13:17:26;99138.34;;;11.75;69.64
76132;BME280;64877;50.994;13.650;2022-11-15T13:22:45;99132.09;;;11.74;69.80
76132;BME280;64877;50.994;13.650;2022-11-15T13:30:40;99126.22;;;11.59;69.93
76132;BME280;64877;50.994;13.650;2022-11-15T13:33:16;99134.31;;;11.50;70.07
76132;BME280;64877;50.994;13.650;2022-11-15T13:35:46;99126.63;;;11.45;70.63
76132;BME280;64877;50.994;13.650;2022-11-15T13:38:33;99133.44;;;11.39;69.93
76132;BME280;64877;50.994;13.650;2022-11-15T13:41:09;99135.69;;;11.34;70.48
76132;BME280;64877;50.994;13.650;2022-11-15T13:43:36;99129.84;;;11.29;70.37
76132;BME280;64877;50.994;13.650;2022-11-15T13:46:24;99131.69;;;11.29;70.65
76132;BME280;64877;50.994;13.650;2022-11-15T13:49:02;99129.09;;;11.27;70.17
76132;BME280;64877;50.994;13.650;2022-11-15T13:51:33;99132.06;;;11.15;70.29
76132;BME280;64877;50.994;13.650;2022-11-15T13:56:38;99122.91;;;11.06;70.98
76132;BME280;64877;50.994;13.650;2022-11-15T13:59:29;99116.66;;;11.05;70.55
76132;BME280;64877;50.994;13.650;2022-11-15T14:01:58;99127.56;;;10.94;70.10
76132;BME280;64877;50.994;13.650;2022-11-15T14:04:27;99118.06;;;10.79;70.92
76132;BME280;64877;50.994;13.650;2022-11-15T14:06:58;99115.19;;;10.71;71.42
76132;BME280;64877;50.994;13.650;2022-11-15T14:12:02;99117.53;;;10.54;71.37
76132;BME280;64877;50.994;13.650;2022-11-15T14:14:47;99112.91;;;10.45;71.73
76132;BME280;64877;50.994;13.650;2022-11-15T14:17:34;99114.47;;;10.48;71.51
76132;BME280;64877;50.994;13.650;2022-11-15T14:20:00;99105.84;;;10.33;71.67
76132;BME280;64877;50.994;13.650;2022-11-15T14:22:29;99103.53;;;10.28;72.23
76132;BME280;64877;50.994;13.650;2022-11-15T14:25:17;99118.66;;;10.20;71.81
76132;BME280;64877;50.994;13.650;2022-11-15T14:30:49;99110.41;;;10.00;72.80
76132;BME280;64877;50.994;13.650;2022-11-15T14:33:25;99103.09;;;9.91;72.45
76132;BME280;64877;50.994;13.650;2022-11-15T14:35:53;99099.16;;;9.84;72.78
76132;BME280;64877;50.994;13.650;2022-11-15T14:38:20;99108.16;;;9.73;73.51
76132;BME280;64877;50.994;13.650;2022-11-15T14:40:45;99105.25;;;9.65;73.89
76132;BME280;64877;50.994;13.650;2022-11-15T14:43:11;99110.28;;;9.70;73.33
76132;BME280;64877;50.994;13.650;2022-11-15T14:45:37;99112.88;;;9.60;73.23
76132;BME280;64877;50.994;13.650;2022-11-15T14:48:03;99108.72;;;9.56;73.87
76132;BME280;64877;50.994;13.650;2022-11-15T14:50:29;99107.09;;;9.53;73.43
76132;BME280;64877;50.994;13.650;2022-11-15T14:52:54;99107.84;;;9.44;74.13
76132;BME280;64877;50.994;13.650;2022-11-15T14:55:33;99107.84;;;9.44;74.48
76132;BME280;64877;50.994;13.650;2022-11-15T14:58:04;99108.38;;;9.38;74.18
76132;BME280;64877;50.994;13.650;2022-11-15T15:00:31;99108.38;;;9.38;74.35
76132;BME280;64877;50.994;13.650;2022-11-15T15:02:57;99098.22;;;9.30;75.04
76132;BME280;64877;50.994;13.650;2022-11-15T15:05:34;99094.69;;;9.30;74.36
76132;BME280;64877;50.994;13.650;2022-11-15T15:07:59;99095.16;;;9.24;74.64
76132;BME280;64877;50.994;13.650;2022-11-15T15:10:30;99086.00;;;9.15;75.06
76132;BME280;64877;50.994;13.650;2022-11-15T15:12:55;99087.84;;;9.03;75.51
76132;BME280;64877;50.994;13.650;2022-11-15T15:15:26;99091.50;;;9.02;74.65
76132;BME280;64877;50.994;13.650;2022-11-15T15:17:52;99087.63;;;8.95;75.19
76132;BME280;64877;50.994;13.650;2022-11-15T15:20:17;99091.50;;;9.02;74.61
76132;BME280;64877;50.994;13.650;2022-11-15T15:22:44;99085.38;;;8.89;75.05